Time;durP1;ratioP1;P1;durP2;ratioP2;P2;SDS_P1;SDS_P2;PMS_P1;PMS_P2;Temp;Humidity;BMP_temperature;BMP_pressure;BME280_temperature;BME280_humidity;BME280_pressure;Samples;Min_cycle;Max_cycle;Signal;HPM_P1;HPM_P2
2022/08/08 00:02:16;;;;;;;;;;;;;;;16.85;57.30;100557.66;4995357;28;948;-56
2022/08/08 00:04:47;;;;;;;;;;;;;;;16.88;56.77;100557.09;5008697;28;1517;-55
2022/08/08 00:07:12;;;;;;;;;;;;;;;16.88;56.95;100562.56;4995188;28;991;-54
2022/08/08 00:09:47;;;;;;;;;;;;;;;16.84;56.69;100565.03;4988053;28;917;-57
2022/08/08 00:12:13;;;;;;;;;;;;;;;16.81;56.93;100573.03;4993836;28;951;-52
2022/08/08 00:14:49;;;;;;;;;;;;;;;16.73;56.78;100578.00;4990661;28;1217;-56
2022/08/08 00:17:21;;;;;;;;;;;;;;;16.80;56.73;100576.88;5002746;28;1979;-53
2022/08/08 00:19:52;;;;;;;;;;;;;;;16.75;56.74;100584.03;4990056;28;1105;-57
2022/08/08 00:22:19;;;;;;;;;;;;;;;16.81;56.63;100584.03;4989636;28;1011;-52
2022/08/08 00:24:46;;;;;;;;;;;;;;;16.74;56.70;100585.13;4995541;28;2607;-52
2022/08/08 00:27:11;;;;;;;;;;;;;;;16.71;56.80;100579.38;5010234;28;1120;-53
2022/08/08 00:29:42;;;;;;;;;;;;;;;16.68;56.86;100590.94;4992098;28;987;-53
2022/08/08 00:32:40;;;;;;;;;;;;;;;16.70;56.52;100589.53;5008628;28;1204;-54
2022/08/08 00:35:24;;;;;;;;;;;;;;;16.69;56.75;100584.31;4963190;28;1313;-57
2022/08/08 00:38:01;;;;;;;;;;;;;;;16.65;56.49;100581.34;4987329;28;1906;-57
2022/08/08 00:40:27;;;;;;;;;;;;;;;16.65;56.77;100581.34;4989527;28;1062;-56
2022/08/08 00:43:11;;;;;;;;;;;;;;;16.63;56.63;100585.44;4985055;28;1050;-58
2022/08/08 00:45:37;;;;;;;;;;;;;;;16.60;56.92;100581.34;4984445;28;1642;-52
2022/08/08 00:48:21;;;;;;;;;;;;;;;16.59;56.70;100577.78;4983182;28;999;-54
2022/08/08 00:50:46;;;;;;;;;;;;;;;17.05;58.20;100589.72;4994974;28;995;-56
2022/08/08 00:53:12;;;;;;;;;;;;;;;17.54;58.78;100593.59;4994128;28;1852;-54
2022/08/08 00:55:39;;;;;;;;;;;;;;;17.15;58.80;100589.66;4993027;28;1906;-57
2022/08/08 00:58:27;;;;;;;;;;;;;;;17.03;58.31;100589.19;4968868;28;1299;-55
2022/08/08 01:01:08;;;;;;;;;;;;;;;16.96;57.77;100591.41;4993473;28;1082;-57
2022/08/08 01:03:48;;;;;;;;;;;;;;;16.90;57.36;100577.72;4989051;28;1250;-56
2022/08/08 01:06:34;;;;;;;;;;;;;;;16.87;57.35;100582.91;4979237;28;1310;-55
2022/08/08 01:09:03;;;;;;;;;;;;;;;16.82;57.15;100574.69;5002957;28;1099;-54
2022/08/08 01:11:34;;;;;;;;;;;;;;;16.81;56.91;100578.53;4978665;28;1154;-53
2022/08/08 01:14:42;;;;;;;;;;;;;;;16.84;56.82;100566.97;4978634;28;1187;-56
2022/08/08 01:17:08;;;;;;;;;;;;;;;16.72;57.03;100581.84;4917552;29;1910;-56
2022/08/08 01:19:38;;;;;;;;;;;;;;;16.74;57.11;100584.31;4935437;29;1554;-56
2022/08/08 01:22:22;;;;;;;;;;;;;;;16.72;56.88;100587.34;4943914;28;1595;-54
2022/08/08 01:25:14;;;;;;;;;;;;;;;16.69;56.81;100587.91;5002936;28;1140;-55
2022/08/08 01:27:40;;;;;;;;;;;;;;;16.71;56.74;100587.63;4955870;28;1126;-55
2022/08/08 01:30:26;;;;;;;;;;;;;;;16.64;56.94;100582.44;4978630;28;1164;-56
2022/08/08 01:32:58;;;;;;;;;;;;;;;16.71;56.83;100580.19;5003480;28;1370;-53
2022/08/08 01:35:42;;;;;;;;;;;;;;;16.67;56.76;100584.59;4984984;28;996;-53
2022/08/08 01:38:25;;;;;;;;;;;;;;;16.61;57.17;100580.25;4994476;28;1336;-56
2022/08/08 01:40:56;;;;;;;;;;;;;;;16.63;56.96;100580.78;5001223;28;1135;-57
2022/08/08 01:43:32;;;;;;;;;;;;;;;16.66;56.54;100582.13;4963350;28;1129;-54
2022/08/08 01:46:13;;;;;;;;;;;;;;;16.63;56.62;100582.72;5005485;28;1630;-55
2022/08/08 01:48:46;;;;;;;;;;;;;;;16.62;56.73;100587.38;4969865;28;1216;-55
2022/08/08 01:51:30;;;;;;;;;;;;;;;16.56;56.63;100583.84;5002014;28;1391;-52
2022/08/08 01:54:12;;;;;;;;;;;;;;;16.54;56.99;100582.47;4985053;28;2727;-55
2022/08/08 01:56:46;;;;;;;;;;;;;;;16.54;56.88;100582.47;4991901;28;1906;-56
2022/08/08 01:59:27;;;;;;;;;;;;;;;16.60;56.58;100584.06;4978655;28;1163;-55
2022/08/08 02:02:03;;;;;;;;;;;;;;;16.70;57.72;100589.53;5003543;28;1091;-54
2022/08/08 02:04:40;;;;;;;;;;;;;;;17.61;59.04;100583.09;5004274;28;1223;-57
2022/08/08 02:07:08;;;;;;;;;;;;;;;17.13;58.85;100580.91;4964614;28;1211;-55
2022/08/08 02:09:55;;;;;;;;;;;;;;;16.99;58.54;100586.19;4964934;28;1586;-56
2022/08/08 02:12:24;;;;;;;;;;;;;;;16.93;58.04;100579.06;4994656;28;1321;-54
2022/08/08 02:14:52;;;;;;;;;;;;;;;16.95;57.53;100589.78;4988293;28;1417;-55
2022/08/08 02:17:18;;;;;;;;;;;;;;;16.84;57.55;100587.03;4988445;28;1902;-55
2022/08/08 02:19:52;;;;;;;;;;;;;;;16.86;57.08;100597.75;4978259;28;1179;-54
2022/08/08 02:22:30;;;;;;;;;;;;;;;16.77;57.19;100589.25;4987663;28;880;-57
2022/08/08 02:24:56;;;;;;;;;;;;;;;16.83;57.05;100598.28;4962312;28;1124;-56
2022/08/08 02:27:41;;;;;;;;;;;;;;;16.76;57.17;100599.41;4971802;28;1468;-57
2022/08/08 02:30:08;;;;;;;;;;;;;;;16.70;57.20;100596.97;4975562;28;1115;-55
2022/08/08 02:32:43;;;;;;;;;;;;;;;16.76;56.86;100599.41;4969473;28;1101;-56
2022/08/08 02:35:11;;;;;;;;;;;;;;;16.72;56.88;100603.81;4986365;28;1094;-55
2022/08/08 02:38:08;;;;;;;;;;;;;;;16.71;57.00;100610.41;5007909;28;1913;-54
2022/08/08 02:40:40;;;;;;;;;;;;;;;16.65;56.85;100597.81;4986814;28;1003;-53
2022/08/08 02:43:26;;;;;;;;;;;;;;;16.67;56.96;100584.59;4982611;28;1359;-54
2022/08/08 02:46:05;;;;;;;;;;;;;;;16.66;56.91;100593.13;4957119;28;1232;-54
2022/08/08 02:48:49;;;;;;;;;;;;;;;16.64;56.82;100600.81;4996466;28;1242;-57
2022/08/08 02:51:37;;;;;;;;;;;;;;;17.60;59.38;100606.22;4989309;28;995;-55
2022/08/08 02:54:10;;;;;;;;;;;;;;;17.46;59.45;100600.53;4966143;28;2678;-55
2022/08/08 02:56:36;;;;;;;;;;;;;;;17.14;58.86;100601.78;4970307;28;1903;-55
2022/08/08 02:59:02;;;;;;;;;;;;;;;17.09;58.09;100594.38;4980139;28;1599;-56
2022/08/08 03:01:47;;;;;;;;;;;;;;;17.04;57.80;100596.31;4993567;28;1173;-54
2022/08/08 03:04:34;;;;;;;;;;;;;;;16.95;57.74;100609.81;4959648;28;1538;-56
2022/08/08 03:07:19;;;;;;;;;;;;;;;16.90;57.47;100607.06;4973480;28;1658;-54
2022/08/08 03:10:03;;;;;;;;;;;;;;;16.89;57.17;100610.94;5009016;28;1443;-57
2022/08/08 03:12:41;;;;;;;;;;;;;;;16.80;57.20;100616.13;4979028;28;1145;-53
2022/08/08 03:15:07;;;;;;;;;;;;;;;16.81;57.09;100617.78;5003271;28;1141;-55
2022/08/08 03:17:39;;;;;;;;;;;;;;;16.83;56.92;100623.00;5012151;28;1979;-54
2022/08/08 03:20:05;;;;;;;;;;;;;;;16.76;56.94;100621.38;5011215;28;1097;-55
2022/08/08 03:22:36;;;;;;;;;;;;;;;16.80;56.95;100626.31;4985769;28;1843;-55
2022/08/08 03:25:03;;;;;;;;;;;;;;;16.71;57.02;100634.31;5009771;28;1042;-54
2022/08/08 03:27:36;;;;;;;;;;;;;;;16.72;57.01;100636.78;4981875;28;1034;-55
2022/08/08 03:30:05;;;;;;;;;;;;;;;16.70;56.86;100638.94;4994894;28;1124;-55
2022/08/08 03:35:15;;;;;;;;;;;;;;;16.65;56.85;100640.88;4989412;28;787;-55
2022/08/08 03:37:40;;;;;;;;;;;;;;;16.67;57.03;100639.50;5012041;28;1910;-55
2022/08/08 03:40:06;;;;;;;;;;;;;;;16.62;57.02;100644.19;4991743;28;1398;-55
2022/08/08 03:42:32;;;;;;;;;;;;;;;16.62;56.72;100644.19;4993521;28;1124;-57
2022/08/08 03:44:59;;;;;;;;;;;;;;;16.70;57.64;100649.13;4996292;28;1630;-56
2022/08/08 03:47:26;;;;;;;;;;;;;;;17.74;59.12;100645.72;4993879;28;861;-55
2022/08/08 03:49:53;;;;;;;;;;;;;;;17.23;59.27;100648.72;4980104;28;1160;-55
2022/08/08 03:52:19;;;;;;;;;;;;;;;17.12;58.59;100644.38;4979912;28;1125;-57
2022/08/08 03:54:46;;;;;;;;;;;;;;;17.08;58.13;100658.69;5006263;28;1641;-55
2022/08/08 03:57:13;;;;;;;;;;;;;;;16.99;57.72;100656.78;4985999;28;1902;-52
2022/08/08 03:59:38;;;;;;;;;;;;;;;16.89;57.49;100646.66;4970105;28;1331;-58
2022/08/08 04:02:13;;;;;;;;;;;;;;;16.90;57.41;100654.59;4996206;28;1227;-55
2022/08/08 04:04:38;;;;;;;;;;;;;;;16.91;57.18;100648.03;4984218;28;1152;-58
2022/08/08 04:07:04;;;;;;;;;;;;;;;16.86;56.89;100652.69;4997013;28;1122;-55
2022/08/08 04:09:35;;;;;;;;;;;;;;;16.81;57.29;100653.50;5012073;28;1231;-57
2022/08/08 04:12:00;;;;;;;;;;;;;;;16.89;57.09;100652.16;4972482;28;1249;-58
2022/08/08 04:14:46;;;;;;;;;;;;;;;16.81;57.41;100655.44;4992382;28;1174;-56
2022/08/08 04:17:12;;;;;;;;;;;;;;;16.77;57.13;100658.72;4997153;28;1910;-58
2022/08/08 04:19:38;;;;;;;;;;;;;;;16.75;56.98;100655.44;5010634;28;1359;-58
2022/08/08 04:22:04;;;;;;;;;;;;;;;16.73;56.90;100660.38;4971366;28;1019;-56
2022/08/08 04:24:35;;;;;;;;;;;;;;;16.72;57.06;100666.97;4978370;28;2043;-57
2022/08/08 04:27:03;;;;;;;;;;;;;;;16.69;57.25;100666.69;5012085;28;2117;-56
2022/08/08 04:29:29;;;;;;;;;;;;;;;16.71;56.95;100661.75;4996060;28;1255;-58
2022/08/08 04:31:55;;;;;;;;;;;;;;;16.69;56.80;100653.81;4975436;28;1304;-57
2022/08/08 04:34:20;;;;;;;;;;;;;;;16.67;57.08;100650.50;4972416;28;1365;-56
2022/08/08 04:36:47;;;;;;;;;;;;;;;16.65;57.18;100663.69;4977710;28;1902;-57
2022/08/08 04:39:12;;;;;;;;;;;;;;;16.60;57.07;100667.25;4964394;28;1004;-56
2022/08/08 04:41:38;;;;;;;;;;;;;;;16.64;57.11;100653.81;4994301;28;1118;-56
2022/08/08 04:44:03;;;;;;;;;;;;;;;16.58;57.08;100660.41;4995333;28;1609;-57
2022/08/08 04:46:29;;;;;;;;;;;;;;;16.61;56.86;100668.09;5006814;28;1095;-56
2022/08/08 04:48:54;;;;;;;;;;;;;;;16.60;56.79;100667.25;4972839;28;1132;-58
2022/08/08 04:51:20;;;;;;;;;;;;;;;17.20;58.95;100663.84;4961522;28;1271;-57
2022/08/08 04:53:46;;;;;;;;;;;;;;;17.57;59.37;100667.25;4972988;28;1963;-54
2022/08/08 04:56:12;;;;;;;;;;;;;;;17.18;59.34;100670.72;4982444;28;1962;-56
2022/08/08 04:58:39;;;;;;;;;;;;;;;17.10;58.76;100661.97;4966683;28;1126;-55
2022/08/08 05:01:05;;;;;;;;;;;;;;;17.00;58.12;100662.00;5011028;28;1133;-55
2022/08/08 05:03:32;;;;;;;;;;;;;;;16.96;57.99;100673.81;5004622;28;1378;-55
2022/08/08 05:05:58;;;;;;;;;;;;;;;16.92;57.69;100673.56;4971436;28;1231;-55
2022/08/08 05:08:25;;;;;;;;;;;;;;;16.88;57.69;100677.91;4987761;28;1058;-55
2022/08/08 05:10:51;;;;;;;;;;;;;;;16.91;57.46;100674.66;5008287;28;1342;-55
2022/08/08 05:13:17;;;;;;;;;;;;;;;16.91;57.01;100672.75;5010794;28;2108;-54
2022/08/08 05:15:42;;;;;;;;;;;;;;;16.89;57.13;100677.66;5007126;28;1898;-56
2022/08/08 05:18:08;;;;;;;;;;;;;;;16.83;57.28;100683.41;4978281;28;1333;-55
2022/08/08 05:20:34;;;;;;;;;;;;;;;16.77;57.44;100688.94;4994880;28;1072;-55
2022/08/08 05:22:59;;;;;;;;;;;;;;;16.80;57.14;100692.22;4993997;28;1843;-54
2022/08/08 05:25:28;;;;;;;;;;;;;;;16.79;57.27;100687.81;5009998;28;1420;-51
2022/08/08 05:27:53;;;;;;;;;;;;;;;16.79;56.98;100691.41;5010391;28;1161;-55
2022/08/08 05:30:19;;;;;;;;;;;;;;;16.76;57.12;100689.22;5009815;28;1115;-55
2022/08/08 05:32:47;;;;;;;;;;;;;;;16.69;57.22;100686.75;4992607;28;1171;-55
2022/08/08 05:35:16;;;;;;;;;;;;;;;16.72;57.26;100693.63;4975883;28;1249;-54
2022/08/08 05:38:02;;;;;;;;;;;;;;;16.72;57.26;100697.19;5010243;28;1914;-51
2022/08/08 05:40:36;;;;;;;;;;;;;;;16.71;57.13;100703.75;4956163;28;1348;-54
2022/08/08 05:43:05;;;;;;;;;;;;;;;16.72;56.99;100701.84;4973751;28;1165;-52
2022/08/08 05:45:34;;;;;;;;;;;;;;;16.74;56.93;100702.38;5005499;28;1287;-51
2022/08/08 05:48:01;;;;;;;;;;;;;;;17.29;57.29;100697.06;4965344;28;1346;-52
2022/08/08 05:50:27;;;;;;;;;;;;;;;17.45;55.86;100706.91;5010335;28;1315;-56
2022/08/08 05:52:53;;;;;;;;;;;;;;;16.86;55.67;100699.38;5010290;28;1958;-54
2022/08/08 05:55:19;;;;;;;;;;;;;;;16.80;54.99;100703.19;5009574;28;1214;-46
2022/08/08 05:57:45;;;;;;;;;;;;;;;17.23;56.12;100706.44;4981919;28;1915;-54
2022/08/08 06:00:10;;;;;;;;;;;;;;;16.89;55.05;100713.38;4965106;28;2231;-54
2022/08/08 06:05:53;;;;;;;;;;;;;;;16.73;52.77;100725.44;5010719;28;1426;-56
2022/08/08 06:08:21;;;;;;;;;;;;;;;16.61;52.73;100723.00;5014330;28;1397;-51
2022/08/08 06:10:47;;;;;;;;;;;;;;;16.70;51.77;100737.78;4972249;28;1195;-53
2022/08/08 06:13:13;;;;;;;;;;;;;;;16.59;51.76;100737.00;4998811;28;1050;-56
2022/08/08 06:15:41;;;;;;;;;;;;;;;16.66;51.43;100733.97;5011810;28;1961;-57
2022/08/08 06:18:07;;;;;;;;;;;;;;;16.67;51.10;100727.38;5010794;28;1002;-57
2022/08/08 06:20:33;;;;;;;;;;;;;;;16.61;51.24;100739.47;5012541;28;1118;-56
2022/08/08 06:22:58;;;;;;;;;;;;;;;16.67;50.84;100743.84;4996354;28;1784;-50
2022/08/08 06:25:39;;;;;;;;;;;;;;;17.28;52.69;100742.97;4976842;28;1023;-53
2022/08/08 06:28:06;;;;;;;;;;;;;;;17.27;53.38;100746.00;4994199;28;1141;-59
2022/08/08 06:30:32;;;;;;;;;;;;;;;17.06;52.70;100747.97;5012864;28;1129;-59
2022/08/08 06:32:58;;;;;;;;;;;;;;;16.98;52.05;100749.34;5013423;28;1133;-54
2022/08/08 06:35:25;;;;;;;;;;;;;;;16.93;51.58;100747.44;5010881;28;1107;-53
2022/08/08 06:38:00;;;;;;;;;;;;;;;16.84;51.45;100754.53;4980960;28;2011;-59
2022/08/08 06:40:30;;;;;;;;;;;;;;;16.90;50.64;100749.91;5012069;28;1250;-57
2022/08/08 06:42:56;;;;;;;;;;;;;;;16.89;50.37;100756.50;4973407;28;2073;-53
2022/08/08 06:45:29;;;;;;;;;;;;;;;16.95;50.26;100760.88;5012790;28;1125;-57
2022/08/08 06:47:54;;;;;;;;;;;;;;;16.92;50.25;100750.47;4997444;28;907;-56
2022/08/08 06:50:19;;;;;;;;;;;;;;;16.91;50.10;100759.78;5006913;28;1086;-58
2022/08/08 06:52:45;;;;;;;;;;;;;;;16.87;49.96;100759.50;5005907;28;1772;-56
2022/08/08 06:55:11;;;;;;;;;;;;;;;16.94;49.56;100756.47;4979029;28;1249;-54
2022/08/08 06:57:37;;;;;;;;;;;;;;;16.99;49.59;100761.97;5000083;28;1973;-55
2022/08/08 07:00:05;;;;;;;;;;;;;;;16.91;49.73;100760.63;4996153;28;1225;-57
2022/08/08 07:02:31;;;;;;;;;;;;;;;16.88;49.87;100761.16;4995853;28;1135;-54
2022/08/08 07:05:07;;;;;;;;;;;;;;;16.95;49.35;100765.56;5006829;28;1187;-53
2022/08/08 07:07:42;;;;;;;;;;;;;;;16.93;49.55;100769.41;5012659;28;1203;-54
2022/08/08 07:10:09;;;;;;;;;;;;;;;16.91;49.59;100759.78;5012887;28;1101;-58
2022/08/08 07:12:40;;;;;;;;;;;;;;;16.96;49.50;100762.53;5010311;28;1287;-53
2022/08/08 07:15:10;;;;;;;;;;;;;;;16.94;49.43;100761.97;5008290;28;1159;-56
2022/08/08 07:17:36;;;;;;;;;;;;;;;16.93;49.39;100761.16;4997434;28;1917;-49
2022/08/08 07:20:06;;;;;;;;;;;;;;;17.00;49.28;100771.88;4996693;28;1298;-56
2022/08/08 07:22:42;;;;;;;;;;;;;;;16.91;49.41;100771.63;4979224;28;2029;-56
2022/08/08 07:25:07;;;;;;;;;;;;;;;16.90;49.57;100769.13;4967369;28;1227;-57
2022/08/08 07:27:41;;;;;;;;;;;;;;;16.96;49.47;100769.94;4987459;28;1156;-56
2022/08/08 07:30:06;;;;;;;;;;;;;;;17.01;49.25;100770.78;4993052;28;983;-53
2022/08/08 07:32:37;;;;;;;;;;;;;;;16.97;49.41;100763.34;4995365;28;1317;-58
2022/08/08 07:35:04;;;;;;;;;;;;;;;16.95;49.52;100771.88;5005118;28;1120;-57
2022/08/08 07:37:34;;;;;;;;;;;;;;;16.97;49.63;100775.19;4991113;28;1983;-57
2022/08/08 07:40:00;;;;;;;;;;;;;;;17.03;49.33;100771.31;4979588;28;1214;-56
2022/08/08 07:42:29;;;;;;;;;;;;;;;16.94;49.56;100764.72;5009190;28;1219;-53
2022/08/08 07:44:55;;;;;;;;;;;;;;;17.00;49.27;100769.13;4987331;28;1022;-57
2022/08/08 07:47:21;;;;;;;;;;;;;;;17.02;49.42;100766.91;4990916;28;1135;-57
2022/08/08 07:49:46;;;;;;;;;;;;;;;17.00;49.35;100771.03;5007690;28;1315;-58
2022/08/08 07:52:13;;;;;;;;;;;;;;;17.07;49.08;100764.16;5011347;28;1441;-55
2022/08/08 07:54:49;;;;;;;;;;;;;;;17.05;49.43;100765.53;5007234;28;2207;-53
2022/08/08 07:57:20;;;;;;;;;;;;;;;17.07;49.11;100772.41;4970315;28;1909;-59
2022/08/08 07:59:58;;;;;;;;;;;;;;;17.10;49.35;100771.03;4972886;28;1282;-58
2022/08/08 08:02:30;;;;;;;;;;;;;;;17.01;49.54;100770.78;4976130;28;963;-58
2022/08/08 08:04:56;;;;;;;;;;;;;;;17.09;49.18;100772.94;4976597;28;1149;-57
2022/08/08 08:07:21;;;;;;;;;;;;;;;17.14;49.25;100769.38;4974783;28;1233;-54
2022/08/08 08:09:47;;;;;;;;;;;;;;;17.00;49.49;100773.78;4991706;28;1034;-56
2022/08/08 08:12:12;;;;;;;;;;;;;;;17.16;49.05;100783.66;4974764;28;824;-55
2022/08/08 08:14:41;;;;;;;;;;;;;;;17.14;49.14;100774.03;4978737;28;1135;-54
2022/08/08 08:17:07;;;;;;;;;;;;;;;17.15;49.33;100770.19;5000984;28;1954;-55
2022/08/08 08:19:33;;;;;;;;;;;;;;;17.19;49.09;100774.03;4987402;28;1140;-54
2022/08/08 08:21:59;;;;;;;;;;;;;;;16.98;53.44;100770.50;5003925;28;1400;-55
2022/08/08 08:24:30;;;;;;;;;;;;;;;18.11;56.80;100770.16;4972567;28;1181;-57
2022/08/08 08:26:57;;;;;;;;;;;;;;;17.68;55.10;100767.03;4972868;28;1315;-55
2022/08/08 08:29:23;;;;;;;;;;;;;;;17.47;53.46;100767.09;5007862;28;1277;-57
2022/08/08 08:31:50;;;;;;;;;;;;;;;17.42;52.59;100770.69;4991819;28;1192;-57
2022/08/08 08:34:15;;;;;;;;;;;;;;;17.39;51.58;100776.75;4976494;28;1054;-58
2022/08/08 08:36:41;;;;;;;;;;;;;;;17.38;51.04;100761.34;4970644;28;1910;-60
2022/08/08 08:39:07;;;;;;;;;;;;;;;17.36;50.96;100768.22;4965775;28;1477;-56
2022/08/08 08:41:40;;;;;;;;;;;;;;;17.44;50.31;100756.66;5006557;28;1425;-57
2022/08/08 08:44:06;;;;;;;;;;;;;;;17.42;50.14;100756.94;4975552;28;1320;-55
2022/08/08 08:46:32;;;;;;;;;;;;;;;17.39;50.15;100770.41;5000428;28;1226;-50
2022/08/08 08:48:57;;;;;;;;;;;;;;;17.37;49.94;100761.63;4990101;28;931;-58
2022/08/08 08:51:24;;;;;;;;;;;;;;;17.38;49.67;100764.09;4991429;28;1124;-57
2022/08/08 08:53:52;;;;;;;;;;;;;;;17.42;49.77;100765.19;4974136;28;1995;-58
2022/08/08 08:56:21;;;;;;;;;;;;;;;17.36;49.83;100757.22;4992317;28;1914;-60
2022/08/08 08:58:47;;;;;;;;;;;;;;;17.50;49.39;100760.22;4973759;28;1133;-58
2022/08/08 09:01:18;;;;;;;;;;;;;;;17.42;49.71;100759.69;5008262;28;1136;-56
2022/08/08 09:03:47;;;;;;;;;;;;;;;17.44;49.49;100757.47;4994299;28;1321;-60
2022/08/08 09:06:27;;;;;;;;;;;;;;;17.39;49.65;100752.00;4987680;28;1138;-59
2022/08/08 09:08:57;;;;;;;;;;;;;;;17.43;49.34;100753.09;4994262;28;1366;-59
2022/08/08 09:11:22;;;;;;;;;;;;;;;17.51;49.13;100757.19;4971709;28;1321;-59
2022/08/08 09:13:48;;;;;;;;;;;;;;;17.45;49.56;100750.06;4964669;28;1352;-59
2022/08/08 09:16:14;;;;;;;;;;;;;;;17.42;49.49;100748.69;5009222;28;1911;-59
2022/08/08 09:18:43;;;;;;;;;;;;;;;17.52;49.49;100742.34;5009443;28;806;-59
2022/08/08 09:21:09;;;;;;;;;;;;;;;17.54;49.44;100739.31;4976642;28;1140;-58
2022/08/08 09:23:34;;;;;;;;;;;;;;;17.56;49.57;100748.94;4993809;28;1998;-59
2022/08/08 09:26:02;;;;;;;;;;;;;;;17.55;49.55;100746.47;4992340;28;1030;-59
2022/08/08 09:28:30;;;;;;;;;;;;;;;17.52;49.70;100749.78;4989116;28;1234;-59
2022/08/08 09:30:57;;;;;;;;;;;;;;;17.56;49.79;100737.13;4989992;28;1264;-59
2022/08/08 09:33:22;;;;;;;;;;;;;;;17.64;49.64;100758.50;4999993;28;1172;-55
2022/08/08 09:35:47;;;;;;;;;;;;;;;17.64;49.64;100750.25;5005271;28;966;-56
2022/08/08 09:38:14;;;;;;;;;;;;;;;17.65;49.37;100740.91;4992085;28;1970;-59
2022/08/08 09:40:40;;;;;;;;;;;;;;;17.60;49.32;100738.19;4991505;28;1345;-59
2022/08/08 09:43:08;;;;;;;;;;;;;;;17.52;49.67;100736.03;4989433;28;1157;-59
2022/08/08 09:45:33;;;;;;;;;;;;;;;17.62;49.69;100741.47;4991746;28;1069;-59
2022/08/08 09:48:01;;;;;;;;;;;;;;;17.64;49.52;100733.75;4992384;28;1137;-59
2022/08/08 09:50:26;;;;;;;;;;;;;;;17.62;49.39;100746.97;4985893;28;1199;-59
2022/08/08 09:52:52;;;;;;;;;;;;;;;17.66;49.96;100741.75;4990225;28;1994;-58
2022/08/08 09:55:18;;;;;;;;;;;;;;;17.64;49.98;100727.44;4990941;28;1250;-58
2022/08/08 09:57:49;;;;;;;;;;;;;;;17.81;50.02;100733.44;4985303;28;1906;-58
2022/08/08 10:00:16;;;;;;;;;;;;;;;16.46;53.56;100740.28;4988243;28;1054;-59
2022/08/08 10:02:45;;;;;;;;;;;;;;;16.37;53.69;100728.22;4995155;28;1149;-58
2022/08/08 10:05:24;;;;;;;;;;;;;;;17.22;51.32;100727.59;4995063;28;1073;-58
2022/08/08 10:07:50;;;;;;;;;;;;;;;17.49;50.63;100725.56;4994384;28;1232;-58
2022/08/08 10:10:25;;;;;;;;;;;;;;;14.91;57.45;100730.63;4994716;28;1011;-57
2022/08/08 10:12:50;;;;;;;;;;;;;;;16.63;52.53;100725.47;4992271;28;1094;-58
2022/08/08 10:15:16;;;;;;;;;;;;;;;17.16;50.88;100727.88;5010670;28;998;-58
2022/08/08 10:17:43;;;;;;;;;;;;;;;17.35;50.34;100719.84;4993497;28;1911;-58
2022/08/08 10:20:09;;;;;;;;;;;;;;;17.43;50.33;100716.53;4995286;28;812;-56
2022/08/08 10:22:34;;;;;;;;;;;;;;;17.56;50.06;100717.88;4989185;28;1963;-56
2022/08/08 10:25:03;;;;;;;;;;;;;;;17.40;50.42;100717.09;5009663;28;1239;-55
2022/08/08 10:27:29;;;;;;;;;;;;;;;15.44;56.05;100724.34;4994818;28;997;-53
2022/08/08 10:29:58;;;;;;;;;;;;;;;16.86;51.57;100719.41;4993840;28;1094;-60
2022/08/08 10:32:38;;;;;;;;;;;;;;;17.16;50.82;100728.69;4994874;28;983;-59
2022/08/08 10:35:05;;;;;;;;;;;;;;;17.27;50.35;100729.50;4991580;28;960;-58
2022/08/08 10:37:31;;;;;;;;;;;;;;;17.35;50.26;100722.59;4994605;28;1906;-59
2022/08/08 10:39:57;;;;;;;;;;;;;;;17.37;50.08;100712.97;4994504;28;1082;-59
2022/08/08 10:42:23;;;;;;;;;;;;;;;17.51;49.86;100710.44;4995035;28;956;-56
2022/08/08 10:44:51;;;;;;;;;;;;;;;17.52;49.84;100714.03;4994409;28;979;-59
2022/08/08 10:47:18;;;;;;;;;;;;;;;17.49;49.98;100717.31;4982295;28;1197;-59
2022/08/08 10:49:54;;;;;;;;;;;;;;;17.60;49.93;100711.53;4995027;28;1310;-57
2022/08/08 10:52:29;;;;;;;;;;;;;;;15.37;55.76;100710.88;4995460;28;1953;-58
2022/08/08 10:55:05;;;;;;;;;;;;;;;16.40;52.74;100702.97;4994076;28;1213;-58
2022/08/08 10:57:41;;;;;;;;;;;;;;;17.07;50.46;100692.75;4995490;28;2049;-57
2022/08/08 11:00:09;;;;;;;;;;;;;;;17.28;50.24;100700.94;4997216;28;1208;-59
2022/08/08 11:02:34;;;;;;;;;;;;;;;17.28;50.30;100692.69;4997263;28;1153;-56
2022/08/08 11:05:01;;;;;;;;;;;;;;;17.38;50.31;100700.88;4997464;28;1318;-57
2022/08/08 11:07:36;;;;;;;;;;;;;;;17.44;50.06;100708.00;4996969;28;1350;-58
2022/08/08 11:10:02;;;;;;;;;;;;;;;17.41;50.17;100700.31;4997140;28;1299;-56
2022/08/08 11:12:27;;;;;;;;;;;;;;;17.46;50.23;100694.00;4996157;28;1358;-56
2022/08/08 11:14:55;;;;;;;;;;;;;;;15.31;55.80;100696.34;4996125;28;1020;-56
2022/08/08 11:17:22;;;;;;;;;;;;;;;16.41;52.98;100696.34;4997235;28;1902;-58
2022/08/08 11:19:48;;;;;;;;;;;;;;;16.99;50.99;100700.75;4998030;28;1306;-53
2022/08/08 11:22:14;;;;;;;;;;;;;;;17.19;50.62;100692.41;4996762;28;1074;-57
2022/08/08 11:24:39;;;;;;;;;;;;;;;17.26;50.25;100697.63;5009873;28;2619;-57
2022/08/08 11:27:05;;;;;;;;;;;;;;;17.38;50.20;100695.38;4994623;28;1113;-57
2022/08/08 11:29:30;;;;;;;;;;;;;;;17.36;50.11;100689.34;5002931;28;1050;-56
2022/08/08 11:31:56;;;;;;;;;;;;;;;17.41;50.13;100694.81;5012035;28;1153;-54
2022/08/08 11:34:21;;;;;;;;;;;;;;;17.45;50.10;100693.16;4997514;28;1260;-55
2022/08/08 11:36:47;;;;;;;;;;;;;;;17.50;50.06;100695.06;4996601;28;1967;-56
2022/08/08 11:39:12;;;;;;;;;;;;;;;17.51;50.01;100702.19;4997325;28;1303;-53
2022/08/08 11:41:37;;;;;;;;;;;;;;;17.57;49.87;100684.59;4997118;28;1051;-55
2022/08/08 11:44:04;;;;;;;;;;;;;;;17.60;49.95;100683.22;4995045;28;1216;-54
2022/08/08 11:46:30;;;;;;;;;;;;;;;17.60;49.83;100688.72;4990362;28;1031;-56
2022/08/08 11:48:55;;;;;;;;;;;;;;;15.10;56.84;100686.38;4986925;28;1125;-53
2022/08/08 11:51:21;;;;;;;;;;;;;;;16.81;51.31;100689.19;5011285;28;1085;-50
2022/08/08 11:53:47;;;;;;;;;;;;;;;17.25;50.33;100687.72;4994807;28;1782;-51
2022/08/08 11:56:19;;;;;;;;;;;;;;;17.34;50.29;100686.06;4991967;28;1902;-54
2022/08/08 11:58:44;;;;;;;;;;;;;;;17.31;50.13;100686.63;4995662;28;1094;-54
2022/08/08 12:01:10;;;;;;;;;;;;;;;17.48;49.93;100683.53;4995188;28;1169;-53
2022/08/08 12:03:35;;;;;;;;;;;;;;;17.50;49.93;100684.09;4996259;28;1074;-53
2022/08/08 12:06:21;;;;;;;;;;;;;;;16.04;53.64;100681.78;5010744;28;1405;-58
2022/08/08 12:08:47;;;;;;;;;;;;;;;16.20;52.95;100673.56;4993490;28;1375;-52
2022/08/08 12:11:13;;;;;;;;;;;;;;;17.04;50.46;100681.47;4994919;28;1393;-56
2022/08/08 12:13:39;;;;;;;;;;;;;;;17.15;50.51;100671.28;4986213;28;1145;-55
2022/08/08 12:16:07;;;;;;;;;;;;;;;17.22;50.18;100674.56;4994814;28;1898;-53
2022/08/08 12:18:41;;;;;;;;;;;;;;;17.35;50.08;100681.38;4976728;28;1184;-56
2022/08/08 12:21:17;;;;;;;;;;;;;;;17.32;50.18;100680.03;4996236;28;1015;-55
2022/08/08 12:23:42;;;;;;;;;;;;;;;17.42;50.06;100676.41;5007928;28;2421;-57
2022/08/08 12:26:08;;;;;;;;;;;;;;;17.45;50.03;100673.91;4995907;28;905;-53
2022/08/08 12:28:34;;;;;;;;;;;;;;;17.51;50.05;100668.41;4981702;28;1026;-53
2022/08/08 12:31:07;;;;;;;;;;;;;;;17.48;50.15;100661.53;4991793;28;1192;-57
2022/08/08 12:33:33;;;;;;;;;;;;;;;17.58;49.83;100663.41;4996057;28;1077;-55
2022/08/08 12:36:09;;;;;;;;;;;;;;;17.57;49.66;100668.09;4989425;28;1902;-53
2022/08/08 12:38:44;;;;;;;;;;;;;;;17.62;49.77;100679.03;4987898;28;815;-54
2022/08/08 12:41:11;;;;;;;;;;;;;;;14.80;57.08;100676.88;4994327;28;1054;-53
2022/08/08 12:43:36;;;;;;;;;;;;;;;16.72;51.63;100679.88;4995718;28;931;-52
2022/08/08 12:46:11;;;;;;;;;;;;;;;17.10;50.17;100675.69;4995992;28;1074;-51
2022/08/08 12:48:37;;;;;;;;;;;;;;;17.27;49.93;100669.84;4996001;28;967;-56
2022/08/08 12:51:02;;;;;;;;;;;;;;;17.34;49.58;100668.75;4987035;28;991;-53
2022/08/08 12:53:31;;;;;;;;;;;;;;;17.38;49.53;100665.16;4995879;28;2006;-53
2022/08/08 12:56:03;;;;;;;;;;;;;;;17.45;49.63;100662.09;4991583;28;1906;-54
2022/08/08 12:58:44;;;;;;;;;;;;;;;17.44;49.65;100658.50;4988200;28;1070;-55
2022/08/08 13:01:11;;;;;;;;;;;;;;;17.50;49.73;100655.75;4996018;28;1005;-53
2022/08/08 13:03:42;;;;;;;;;;;;;;;17.52;49.86;100659.06;4994722;28;942;-56
2022/08/08 13:06:08;;;;;;;;;;;;;;;17.60;49.73;100661.22;4994813;28;1066;-58
2022/08/08 13:08:52;;;;;;;;;;;;;;;14.75;57.34;100671.41;4995650;28;1354;-54